UTDL

Details ICAO UTDL (LBD)
Name KHUDZHAND
Region Tajikistan, Turkmenistan and Uzbekistan
Timezone Asia/Dushanbe (UTC+5.0)
Plans Departing 9
Arriving 8
Stats Elevation 1,450 ft / 442 m (AMSL)
Location 40.215396° 69.694708°
Runways 1
Magnetic Variation 4.965° E
Sunrise 2017-12-17 02:39:11 UTC / 2017-12-17 07:39:11 Local
Sunset 2017-12-17 11:58:03 UTC / 2017-12-17 16:58:03 Local
Advertisement - Login to hide

Runways

ID Width Length Bearing (true) Bearing (mag) Surface Threshold Offset Overrun Length
08 164 ft / 50 m 10,427 ft / 3,178 m 82.16° 77.20° Asphalt 975 ft / 297 m 210 ft / 64 m
26 164 ft / 50 m 10,427 ft / 3,178 m 262.18° 257.22° Asphalt 975 ft / 297 m 250 ft / 76 m

Map

Weather


0- 5 10 15 20 25 30 35+ Temperature / ° C

Clouds and Precipitation
Forecast for 2017-12-17 12:00 UTC. Updated an hour ago

Ground ~20,000 ft ~40,000 ft Winds

METAR

UTDL 170800Z 07004MPS 1400 1300 R08/1300N BR FEW003 01/00 Q1029 R08/CLRD// NOSIG RMK QBB100 QFE732/0976

TAF

Not found

Frequencies

Tower 120.30 MHz TWR
Approach 120.30 MHz KRUG
Approach 124.80 MHz APP
Warning: Do not use this data for real-world aviation or navigation. No guarantee of current accuracy is given.